createdAt,value
2023-03-12T00:00:18.743Z,14.50
2023-03-12T00:01:24.024Z,17.17
2023-03-12T00:02:26.625Z,14.80
2023-03-12T00:03:29.038Z,11.77
2023-03-12T00:04:32.606Z,14.55
2023-03-12T00:05:38.130Z,15.50
2023-03-12T00:06:40.425Z,14.50
2023-03-12T00:07:42.665Z,16.45
2023-03-12T00:08:45.277Z,12.90
2023-03-12T00:09:47.535Z,12.48
2023-03-12T00:10:49.789Z,13.00
2023-03-12T00:11:52.040Z,17.52
2023-03-12T00:12:54.718Z,11.68
2023-03-12T00:13:58.702Z,13.77
2023-03-12T00:15:03.007Z,14.43
2023-03-12T00:16:14.253Z,14.77
2023-03-12T00:17:21.952Z,14.10
2023-03-12T00:18:24.131Z,14.48
2023-03-12T00:19:26.737Z,16.38
2023-03-12T00:20:29.813Z,18.23
2023-03-12T00:21:32.454Z,17.17
2023-03-12T00:22:34.813Z,22.42
2023-03-12T00:23:37.509Z,16.65
2023-03-12T00:24:39.979Z,22.13
2023-03-12T00:25:46.631Z,104.72
2023-03-12T00:26:49.309Z,160.75
2023-03-12T00:27:51.676Z,30.60
2023-03-12T00:29:01.030Z,106.75
2023-03-12T00:30:05.116Z,62.60
2023-03-12T00:31:18.242Z,16.90
2023-03-12T00:32:23.970Z,16.20
2023-03-12T00:33:27.442Z,139.40
2023-03-12T00:34:30.141Z,39.85
2023-03-12T00:35:40.448Z,28.55
2023-03-12T00:36:43.232Z,26.33
2023-03-12T00:37:45.825Z,26.13
2023-03-12T00:38:48.414Z,128.25
2023-03-12T00:39:51.198Z,26.25
2023-03-12T00:40:54.036Z,104.28
2023-03-12T00:42:00.284Z,28.85
2023-03-12T00:43:02.809Z,92.25
2023-03-12T00:44:08.997Z,60.70
2023-03-12T00:45:11.522Z,86.93
2023-03-12T00:46:13.923Z,239.40
2023-03-12T00:47:16.234Z,18.75
2023-03-12T00:48:18.440Z,161.65
2023-03-12T00:49:20.659Z,258.42
2023-03-12T00:50:23.058Z,340.63
2023-03-12T00:51:25.510Z,70.97
2023-03-12T00:52:27.865Z,89.85
2023-03-12T00:53:30.213Z,76.32
2023-03-12T00:54:32.559Z,99.50
2023-03-12T00:55:35.091Z,267.13
2023-03-12T00:56:37.353Z,247.15
2023-03-12T00:57:39.595Z,157.05
2023-03-12T00:58:42.749Z,22.13
2023-03-12T00:59:45.093Z,283.30
2023-03-12T01:00:47.560Z,260.65
2023-03-12T01:01:51.077Z,51.45
2023-03-12T01:02:53.336Z,16.45
2023-03-12T01:03:55.985Z,69.72
2023-03-12T01:04:58.336Z,18.20
2023-03-12T01:06:00.883Z,22.02
2023-03-12T01:07:03.203Z,14.45
2023-03-12T01:08:05.641Z,140.02
2023-03-12T01:09:09.045Z,216.55
2023-03-12T01:10:14.837Z,45.83
2023-03-12T01:11:19.952Z,54.92
2023-03-12T01:12:22.384Z,15.48
2023-03-12T01:13:25.127Z,13.73
2023-03-12T01:14:27.393Z,206.32
2023-03-12T01:15:30.007Z,172.13
2023-03-12T01:16:32.861Z,194.30
2023-03-12T01:17:35.221Z,49.10
2023-03-12T01:18:37.663Z,19.15
2023-03-12T01:19:39.961Z,16.08
2023-03-12T01:20:42.328Z,16.23
2023-03-12T01:21:44.759Z,102.30
2023-03-12T01:22:47.326Z,67.38
2023-03-12T01:23:50.580Z,93.18
2023-03-12T01:24:53.033Z,26.88
2023-03-12T01:25:55.662Z,20.15
2023-03-12T01:26:58.436Z,22.15
2023-03-12T01:28:00.981Z,118.70
2023-03-12T01:29:03.293Z,37.70
2023-03-12T01:30:06.147Z,49.42
2023-03-12T01:31:10.299Z,73.50
2023-03-12T01:32:12.706Z,89.53
2023-03-12T01:33:16.692Z,36.97
2023-03-12T01:34:19.169Z,25.27
2023-03-12T01:35:21.811Z,17.13
2023-03-12T01:36:27.014Z,17.33
2023-03-12T01:37:29.523Z,10.80
2023-03-12T01:38:31.818Z,41.55
2023-03-12T01:39:34.043Z,18.10
2023-03-12T01:40:36.623Z,13.25
2023-03-12T01:41:39.168Z,12.73
2023-03-12T01:42:41.462Z,13.75
2023-03-12T01:43:43.783Z,11.80
2023-03-12T01:44:51.735Z,13.43
2023-03-12T01:46:24.460Z,13.00
2023-03-12T01:47:31.935Z,13.95
2023-03-12T01:48:40.035Z,13.65
2023-03-12T01:49:42.677Z,13.50
2023-03-12T01:50:45.579Z,13.07
2023-03-12T01:52:04.584Z,14.13
2023-03-12T01:53:13.647Z,14.23
2023-03-12T01:54:30.810Z,13.70
2023-03-12T01:55:33.131Z,12.98
2023-03-12T01:56:37.780Z,31.73
2023-03-12T01:57:48.555Z,31.52
2023-03-12T01:58:54.734Z,12.35
2023-03-12T02:00:01.884Z,13.02
2023-03-12T02:01:04.615Z,20.00
2023-03-12T02:02:08.127Z,13.60
2023-03-12T02:03:11.170Z,14.13
2023-03-12T02:04:17.778Z,15.20
2023-03-12T02:05:43.716Z,15.32
2023-03-12T02:06:57.684Z,16.20
2023-03-12T02:08:00.482Z,17.13
2023-03-12T02:09:05.921Z,14.38
2023-03-12T02:10:09.122Z,13.40
2023-03-12T02:11:11.498Z,14.80
2023-03-12T02:12:14.924Z,12.73
2023-03-12T02:13:17.475Z,19.13
2023-03-12T02:14:22.104Z,21.55
2023-03-12T02:15:24.428Z,15.65
2023-03-12T02:16:27.024Z,16.55
2023-03-12T02:17:30.372Z,16.45
2023-03-12T02:18:34.643Z,15.80
2023-03-12T02:19:52.321Z,14.15
2023-03-12T02:21:16.233Z,14.75
2023-03-12T02:22:21.030Z,10.55
2023-03-12T02:23:35.216Z,11.18
2023-03-12T02:25:03.624Z,16.95
2023-03-12T02:26:07.162Z,9.68
2023-03-12T02:27:12.131Z,10.85
2023-03-12T02:28:16.780Z,11.82
2023-03-12T02:29:19.125Z,13.45
2023-03-12T02:30:22.344Z,12.18
2023-03-12T02:31:29.172Z,17.10
2023-03-12T02:32:38.305Z,13.18
2023-03-12T02:33:41.315Z,15.98
2023-03-12T02:34:43.710Z,10.45
2023-03-12T02:35:47.718Z,11.73
2023-03-12T02:36:50.562Z,13.38
2023-03-12T02:37:55.811Z,12.30
2023-03-12T02:38:58.065Z,12.45
2023-03-12T02:40:10.759Z,10.50
2023-03-12T02:42:33.970Z,9.35
2023-03-12T02:43:36.696Z,10.23
2023-03-12T02:44:39.366Z,11.57
2023-03-12T02:45:41.755Z,12.88
2023-03-12T02:46:47.215Z,11.65
2023-03-12T02:47:49.754Z,13.05
2023-03-12T02:48:54.223Z,10.25
2023-03-12T02:49:56.530Z,9.40
2023-03-12T02:50:58.875Z,10.10
2023-03-12T02:52:02.505Z,10.45
2023-03-12T02:53:05.035Z,9.20
2023-03-12T02:54:08.093Z,8.50
2023-03-12T02:55:10.942Z,10.10
2023-03-12T02:56:13.190Z,10.45
2023-03-12T02:57:15.687Z,10.55
2023-03-12T02:58:18.085Z,10.55
2023-03-12T02:59:21.851Z,13.27
2023-03-12T03:02:13.026Z,11.75
2023-03-12T03:03:15.746Z,9.63
2023-03-12T03:04:17.942Z,11.60
2023-03-12T03:05:21.391Z,9.35
2023-03-12T03:06:24.172Z,13.27
2023-03-12T03:07:26.533Z,10.23
2023-03-12T03:08:29.731Z,10.77
2023-03-12T03:09:31.935Z,13.52
2023-03-12T03:10:34.285Z,11.05
2023-03-12T03:11:36.723Z,8.93
2023-03-12T03:12:40.895Z,11.45
2023-03-12T03:13:44.767Z,13.32
2023-03-12T03:14:47.673Z,9.80
2023-03-12T03:15:49.927Z,10.13
2023-03-12T03:16:52.865Z,10.68
2023-03-12T03:17:59.260Z,14.32
2023-03-12T03:19:02.236Z,14.30
2023-03-12T03:20:11.973Z,15.00
2023-03-12T03:21:16.632Z,12.70
2023-03-12T03:22:21.317Z,10.18
2023-03-12T03:23:24.027Z,10.57
2023-03-12T03:24:26.398Z,11.80
2023-03-12T03:25:28.919Z,11.38
2023-03-12T03:26:31.288Z,11.60
2023-03-12T03:27:33.547Z,10.25
2023-03-12T03:28:35.888Z,8.80
2023-03-12T03:29:38.368Z,10.48
2023-03-12T03:30:40.816Z,11.82
2023-03-12T03:31:43.646Z,10.35
2023-03-12T03:32:47.580Z,11.65
2023-03-12T03:33:51.195Z,8.00
2023-03-12T03:34:53.444Z,13.23
2023-03-12T03:35:57.191Z,10.70
2023-03-12T03:36:59.772Z,11.93
2023-03-12T03:38:02.565Z,9.68
2023-03-12T03:39:05.257Z,10.45
2023-03-12T03:40:11.857Z,10.85
2023-03-12T03:41:18.880Z,11.48
2023-03-12T03:42:21.683Z,9.88
2023-03-12T03:43:24.949Z,10.95
2023-03-12T03:44:27.369Z,11.27
2023-03-12T03:45:30.062Z,12.43
2023-03-12T03:46:32.307Z,8.68
2023-03-12T03:47:38.330Z,9.55
2023-03-12T03:48:41.461Z,12.77
2023-03-12T03:49:45.482Z,12.57
2023-03-12T03:50:47.905Z,16.15
2023-03-12T03:51:51.837Z,11.60
2023-03-12T03:53:02.189Z,14.93
2023-03-12T03:54:04.519Z,11.32
2023-03-12T03:55:07.104Z,9.43
2023-03-12T03:56:15.809Z,10.82
2023-03-12T03:57:24.141Z,11.13
2023-03-12T03:58:26.314Z,11.85
2023-03-12T03:59:28.785Z,10.73
2023-03-12T04:00:31.390Z,11.00
2023-03-12T04:01:33.677Z,12.52
2023-03-12T04:02:37.072Z,8.75
2023-03-12T04:03:39.313Z,11.15
2023-03-12T04:04:41.811Z,12.73
2023-03-12T04:05:45.277Z,13.55
2023-03-12T04:06:48.437Z,10.68
2023-03-12T04:07:53.536Z,15.13
2023-03-12T04:08:59.133Z,9.45
2023-03-12T04:10:04.633Z,14.55
2023-03-12T04:11:12.945Z,9.15
2023-03-12T04:12:15.326Z,9.32
2023-03-12T04:13:18.052Z,8.88
2023-03-12T04:14:20.308Z,15.23
2023-03-12T04:15:22.562Z,9.85
2023-03-12T04:16:25.515Z,14.10
2023-03-12T04:17:29.347Z,14.35
2023-03-12T04:18:32.501Z,14.18
2023-03-12T04:19:37.158Z,13.23
2023-03-12T04:20:40.968Z,8.23
2023-03-12T04:21:43.776Z,11.77
2023-03-12T04:22:47.472Z,11.07
2023-03-12T04:23:49.757Z,11.85
2023-03-12T04:24:52.858Z,10.65
2023-03-12T04:25:55.645Z,12.60
2023-03-12T04:26:59.072Z,9.65
2023-03-12T04:28:01.986Z,11.65
2023-03-12T04:29:04.307Z,9.75
2023-03-12T04:30:07.303Z,10.85
2023-03-12T04:31:11.551Z,9.45
2023-03-12T04:33:38.657Z,10.55
2023-03-12T04:34:41.420Z,10.02
2023-03-12T04:35:51.598Z,10.80
2023-03-12T04:36:54.038Z,8.32
2023-03-12T04:37:57.487Z,9.30
2023-03-12T04:39:01.556Z,9.65
2023-03-12T04:40:09.759Z,9.38
2023-03-12T04:41:14.505Z,10.85
2023-03-12T04:42:23.255Z,11.82
2023-03-12T04:43:25.948Z,7.97
2023-03-12T04:44:28.196Z,12.20
2023-03-12T04:45:30.508Z,11.93
2023-03-12T04:46:32.885Z,12.13
2023-03-12T04:47:35.243Z,13.00
2023-03-12T04:48:37.777Z,9.85
2023-03-12T04:49:40.249Z,8.55
2023-03-12T04:50:43.510Z,9.77
2023-03-12T04:51:46.010Z,8.38
2023-03-12T04:52:48.302Z,12.27
2023-03-12T04:53:51.465Z,12.13
2023-03-12T04:54:54.350Z,13.77
2023-03-12T04:55:56.985Z,10.07
2023-03-12T04:56:59.704Z,9.88
2023-03-12T04:58:02.405Z,12.57
2023-03-12T04:59:05.824Z,9.73
2023-03-12T05:00:14.867Z,11.23
2023-03-12T05:01:33.388Z,10.55
2023-03-12T05:02:39.429Z,10.70
2023-03-12T05:03:41.924Z,12.60
2023-03-12T05:04:44.441Z,8.65
2023-03-12T05:05:46.890Z,11.65
2023-03-12T05:06:49.454Z,11.48
2023-03-12T05:07:51.794Z,10.75
2023-03-12T05:08:54.196Z,10.25
2023-03-12T05:09:57.061Z,10.07
2023-03-12T05:10:59.279Z,11.48
2023-03-12T05:12:02.125Z,13.77
2023-03-12T05:13:04.660Z,11.02
2023-03-12T05:14:06.997Z,10.77
2023-03-12T05:15:09.589Z,12.65
2023-03-12T05:16:13.304Z,9.07
2023-03-12T05:17:16.364Z,10.05
2023-03-12T05:18:20.463Z,10.20
2023-03-12T05:19:23.083Z,11.30
2023-03-12T05:20:25.404Z,11.07
2023-03-12T05:21:27.870Z,11.68
2023-03-12T05:22:32.139Z,11.30
2023-03-12T05:23:35.956Z,9.85
2023-03-12T05:24:38.447Z,10.68
2023-03-12T05:25:41.100Z,18.33
2023-03-12T05:26:43.674Z,10.60
2023-03-12T05:27:50.366Z,12.75
2023-03-12T05:28:52.822Z,13.57
2023-03-12T05:29:56.705Z,9.13
2023-03-12T05:31:00.416Z,13.20
2023-03-12T05:32:03.391Z,11.95
2023-03-12T05:33:05.687Z,13.75
2023-03-12T05:34:07.943Z,20.33
2023-03-12T05:35:14.337Z,13.52
2023-03-12T05:36:18.349Z,12.40
2023-03-12T05:37:21.841Z,12.18
2023-03-12T05:38:25.555Z,11.52
2023-03-12T05:39:28.628Z,12.13
2023-03-12T05:40:34.848Z,16.88
2023-03-12T05:41:37.115Z,13.63
2023-03-12T05:42:48.437Z,13.65
2023-03-12T05:43:52.758Z,11.15
2023-03-12T05:44:57.391Z,10.68
2023-03-12T05:46:04.210Z,18.55
2023-03-12T05:47:09.162Z,14.60
2023-03-12T05:48:11.644Z,15.50
2023-03-12T05:49:14.096Z,15.30
2023-03-12T05:50:19.313Z,14.60
2023-03-12T05:51:22.167Z,17.23
2023-03-12T05:52:24.656Z,13.80
2023-03-12T05:53:29.342Z,15.05
2023-03-12T05:54:31.663Z,18.95
2023-03-12T05:55:38.414Z,16.13
2023-03-12T05:56:43.812Z,16.02
2023-03-12T05:57:46.131Z,15.73
2023-03-12T05:58:51.282Z,14.70
2023-03-12T05:59:54.601Z,17.58
2023-03-12T06:00:57.079Z,12.63
2023-03-12T06:01:59.615Z,12.27
2023-03-12T06:03:02.810Z,11.13
2023-03-12T06:04:05.685Z,15.20
2023-03-12T06:05:13.048Z,13.65
2023-03-12T06:06:16.262Z,12.23
2023-03-12T06:07:18.725Z,8.65
2023-03-12T06:08:22.202Z,12.05
2023-03-12T06:09:24.864Z,12.07
2023-03-12T06:10:29.131Z,11.57
2023-03-12T06:11:33.799Z,12.00
2023-03-12T06:12:38.294Z,12.75
2023-03-12T06:13:43.564Z,16.70
2023-03-12T06:14:46.213Z,13.63
2023-03-12T06:15:49.402Z,15.20
2023-03-12T06:16:54.563Z,12.93
2023-03-12T06:17:56.832Z,11.32
2023-03-12T06:19:02.166Z,13.40
2023-03-12T06:20:05.137Z,9.88
2023-03-12T06:21:16.130Z,11.60
2023-03-12T06:22:20.154Z,12.70
2023-03-12T06:23:23.996Z,10.50
2023-03-12T06:24:26.283Z,11.15
2023-03-12T06:25:44.948Z,9.77
2023-03-12T06:26:47.358Z,9.50
2023-03-12T06:27:49.648Z,9.82
2023-03-12T06:28:52.324Z,10.10
2023-03-12T06:29:54.718Z,12.07
2023-03-12T06:30:56.946Z,10.23
2023-03-12T06:31:59.205Z,12.32
2023-03-12T06:33:04.080Z,13.48
2023-03-12T06:34:06.611Z,11.75
2023-03-12T06:35:09.578Z,13.45
2023-03-12T06:36:12.434Z,17.40
2023-03-12T06:37:15.058Z,12.32
2023-03-12T06:38:17.592Z,12.55
2023-03-12T06:39:19.856Z,12.57
2023-03-12T06:40:22.129Z,9.73
2023-03-12T06:41:24.341Z,16.05
2023-03-12T06:42:26.567Z,13.68
2023-03-12T06:43:32.750Z,13.25
2023-03-12T06:44:35.026Z,10.98
2023-03-12T06:45:37.482Z,11.48
2023-03-12T06:46:42.738Z,16.67
2023-03-12T06:47:45.211Z,11.48
2023-03-12T06:48:47.957Z,11.20
2023-03-12T06:49:50.249Z,14.18
2023-03-12T06:50:52.700Z,11.52
2023-03-12T06:51:57.066Z,14.20
2023-03-12T06:52:59.469Z,13.88
2023-03-12T06:54:02.606Z,13.27
2023-03-12T06:55:06.975Z,16.95
2023-03-12T06:56:09.877Z,18.52
2023-03-12T06:57:12.211Z,19.13
2023-03-12T06:58:14.559Z,17.80
2023-03-12T06:59:20.711Z,13.48
2023-03-12T07:00:22.990Z,16.38
2023-03-12T07:01:25.365Z,21.08
2023-03-12T07:02:28.053Z,23.05
2023-03-12T07:03:30.373Z,25.08
2023-03-12T07:04:32.614Z,22.60
2023-03-12T07:05:34.897Z,23.23
2023-03-12T07:06:37.149Z,23.42
2023-03-12T07:07:39.478Z,20.80
2023-03-12T07:08:42.978Z,15.52
2023-03-12T07:09:45.347Z,14.30
2023-03-12T07:10:47.636Z,13.43
2023-03-12T07:11:50.071Z,13.65
2023-03-12T07:12:52.574Z,12.40
2023-03-12T07:13:54.908Z,9.45
2023-03-12T07:14:57.262Z,13.30
2023-03-12T07:15:59.561Z,13.50
2023-03-12T07:17:02.267Z,12.30
2023-03-12T07:18:10.769Z,14.02
2023-03-12T07:19:13.097Z,17.90
2023-03-12T07:20:15.291Z,11.50
2023-03-12T07:21:22.809Z,11.88
2023-03-12T07:22:25.166Z,11.95
2023-03-12T07:23:28.178Z,10.13
2023-03-12T07:24:30.600Z,12.45
2023-03-12T07:25:37.214Z,12.10
2023-03-12T07:26:39.973Z,10.32
2023-03-12T07:27:42.283Z,12.40
2023-03-12T07:28:45.107Z,9.85
2023-03-12T07:29:47.577Z,11.35
2023-03-12T07:30:50.706Z,13.57
2023-03-12T07:31:53.123Z,11.82
2023-03-12T07:32:55.492Z,13.30
2023-03-12T07:33:58.048Z,14.25
2023-03-12T07:35:00.593Z,10.52
2023-03-12T07:36:03.364Z,9.65
2023-03-12T07:37:05.670Z,13.13
2023-03-12T07:38:09.331Z,10.15
2023-03-12T07:39:11.563Z,12.35
2023-03-12T07:40:14.250Z,12.57
2023-03-12T07:41:16.970Z,10.88
2023-03-12T07:42:19.359Z,10.13
2023-03-12T07:43:23.803Z,11.90
2023-03-12T07:44:29.325Z,14.15
2023-03-12T07:45:31.784Z,17.63
2023-03-12T07:46:33.994Z,17.02
2023-03-12T07:47:36.360Z,12.35
2023-03-12T07:48:41.518Z,15.95
2023-03-12T07:49:48.181Z,13.15
2023-03-12T07:50:50.987Z,16.98
2023-03-12T07:51:53.653Z,18.23
2023-03-12T07:52:55.884Z,14.50
2023-03-12T07:53:58.132Z,19.48
2023-03-12T07:55:00.504Z,22.15
2023-03-12T07:56:03.152Z,22.00
2023-03-12T07:57:06.058Z,20.25
2023-03-12T07:58:09.110Z,28.85
2023-03-12T07:59:11.608Z,24.70
2023-03-12T08:00:15.334Z,19.67
2023-03-12T08:01:25.504Z,15.75
2023-03-12T08:02:30.335Z,18.60
2023-03-12T08:03:33.360Z,12.65
2023-03-12T08:04:35.951Z,17.38
2023-03-12T08:05:38.604Z,32.67
2023-03-12T08:06:42.901Z,12.35
2023-03-12T08:07:45.656Z,14.93
2023-03-12T08:08:48.093Z,12.35
2023-03-12T08:09:50.443Z,11.65
2023-03-12T08:10:55.022Z,13.68
2023-03-12T08:11:57.280Z,10.90
2023-03-12T08:12:59.591Z,10.95
2023-03-12T08:14:05.486Z,15.52
2023-03-12T08:15:12.805Z,11.27
2023-03-12T08:16:15.662Z,12.50
2023-03-12T08:17:18.289Z,15.02
2023-03-12T08:18:21.053Z,15.80
2023-03-12T08:19:23.281Z,15.07
2023-03-12T08:20:25.562Z,17.05
2023-03-12T08:21:27.882Z,10.93
2023-03-12T08:22:30.072Z,13.40
2023-03-12T08:23:32.379Z,11.32
2023-03-12T08:24:35.804Z,11.60
2023-03-12T08:25:38.142Z,12.57
2023-03-12T08:26:40.467Z,11.45
2023-03-12T08:27:43.100Z,11.80
2023-03-12T08:28:45.883Z,14.60
2023-03-12T08:29:48.267Z,12.35
2023-03-12T08:30:55.633Z,14.02
2023-03-12T08:32:04.966Z,13.82
2023-03-12T08:33:07.962Z,13.07
2023-03-12T08:34:10.245Z,13.15
2023-03-12T08:35:12.603Z,13.25
2023-03-12T08:36:15.103Z,15.45
2023-03-12T08:37:17.885Z,16.38
2023-03-12T08:38:20.385Z,12.13
2023-03-12T08:39:22.711Z,13.18
2023-03-12T08:40:25.092Z,11.73
2023-03-12T08:41:27.366Z,13.73
2023-03-12T08:42:29.709Z,17.67
2023-03-12T08:43:32.055Z,14.38
2023-03-12T08:44:34.835Z,13.10
2023-03-12T08:45:37.397Z,18.10
2023-03-12T08:46:40.026Z,19.50
2023-03-12T08:47:43.521Z,18.23
2023-03-12T08:48:45.812Z,16.63
2023-03-12T08:49:48.273Z,16.65
2023-03-12T08:50:50.916Z,15.45
2023-03-12T08:51:53.316Z,14.63
2023-03-12T08:52:56.129Z,15.45
2023-03-12T08:54:01.041Z,10.82
2023-03-12T08:55:03.904Z,19.52
2023-03-12T08:56:06.368Z,15.43
2023-03-12T08:57:08.648Z,15.07
2023-03-12T08:58:11.057Z,16.45
2023-03-12T08:59:14.147Z,12.40
2023-03-12T09:00:17.905Z,18.55
2023-03-12T09:01:20.354Z,19.35
2023-03-12T09:02:22.617Z,15.38
2023-03-12T09:03:25.832Z,17.58
2023-03-12T09:04:31.233Z,14.90
2023-03-12T09:05:33.528Z,15.43
2023-03-12T09:06:36.198Z,15.90
2023-03-12T09:07:38.643Z,16.70
2023-03-12T09:08:41.297Z,16.08
2023-03-12T09:09:43.842Z,14.18
2023-03-12T09:10:50.181Z,14.68
2023-03-12T09:11:52.575Z,15.15
2023-03-12T09:12:54.994Z,13.43
2023-03-12T09:14:28.358Z,17.38
2023-03-12T09:15:19.684Z,18.67
2023-03-12T09:16:21.957Z,16.60
2023-03-12T09:17:24.332Z,14.60
2023-03-12T09:18:27.033Z,16.85
2023-03-12T09:19:29.790Z,14.70
2023-03-12T09:20:32.244Z,15.98
2023-03-12T09:21:34.659Z,18.38
2023-03-12T09:22:37.331Z,17.48
2023-03-12T09:23:41.074Z,17.48
2023-03-12T09:24:43.336Z,15.82
2023-03-12T09:25:46.677Z,12.88
2023-03-12T09:26:49.222Z,16.63
2023-03-12T09:27:51.670Z,16.98
2023-03-12T09:28:54.070Z,13.48
2023-03-12T09:30:00.598Z,16.15
2023-03-12T09:31:06.615Z,24.98
2023-03-12T09:32:09.545Z,18.67
2023-03-12T09:33:12.149Z,16.50
2023-03-12T09:34:14.572Z,17.15
2023-03-12T09:35:17.036Z,18.15
2023-03-12T09:36:19.333Z,19.65
2023-03-12T09:37:23.950Z,20.08
2023-03-12T09:38:27.002Z,12.90
2023-03-12T09:39:29.473Z,12.93
2023-03-12T09:40:36.360Z,14.80
2023-03-12T09:41:41.183Z,14.23
2023-03-12T09:42:55.926Z,18.85
2023-03-12T09:43:58.173Z,14.65
2023-03-12T09:45:04.490Z,14.02
2023-03-12T09:46:17.880Z,12.63
2023-03-12T09:47:33.539Z,14.57
2023-03-12T09:48:37.201Z,14.48
2023-03-12T09:49:45.318Z,16.02
2023-03-12T09:50:50.524Z,14.65
2023-03-12T09:51:56.956Z,14.43
2023-03-12T09:53:06.873Z,13.77
2023-03-12T09:54:42.811Z,13.73
2023-03-12T09:55:49.215Z,13.95
2023-03-12T09:56:52.630Z,15.23
2023-03-12T09:57:59.585Z,14.13
2023-03-12T09:59:01.967Z,14.07
2023-03-12T10:00:07.191Z,14.18
2023-03-12T10:01:38.901Z,10.23
2023-03-12T10:03:00.841Z,15.82
2023-03-12T10:04:29.688Z,15.27
2023-03-12T10:06:08.623Z,15.43
2023-03-12T10:07:27.526Z,15.75
2023-03-12T10:08:56.781Z,11.45
2023-03-12T10:10:27.825Z,16.52
2023-03-12T10:11:48.570Z,17.05
2023-03-12T10:13:15.106Z,15.88
2023-03-12T10:14:26.205Z,18.77
2023-03-12T10:15:54.845Z,18.20
2023-03-12T10:17:18.452Z,16.42
2023-03-12T10:19:07.155Z,17.90
2023-03-12T10:21:09.802Z,15.32
2023-03-12T10:22:35.182Z,17.58
2023-03-12T10:24:04.491Z,19.00
2023-03-12T10:25:32.045Z,17.27
2023-03-12T10:26:40.182Z,12.10
2023-03-12T10:27:43.301Z,14.65
2023-03-12T10:28:53.452Z,14.85
2023-03-12T10:29:57.589Z,14.07
2023-03-12T10:31:36.300Z,15.35
2023-03-12T11:11:48.235Z,17.00
2023-03-12T11:12:55.432Z,15.05
2023-03-12T11:14:19.993Z,12.68
2023-03-12T11:15:36.112Z,13.25
2023-03-12T11:16:38.447Z,14.43
2023-03-12T11:17:40.675Z,16.42
2023-03-12T11:19:25.822Z,15.68
2023-03-12T11:20:29.801Z,16.45
2023-03-12T11:21:40.351Z,14.50
2023-03-12T11:22:42.591Z,12.63
2023-03-12T11:24:07.223Z,11.95
2023-03-12T11:27:21.117Z,13.23
2023-03-12T11:28:29.725Z,13.43
2023-03-12T11:29:39.674Z,10.93
2023-03-12T11:30:43.807Z,13.27
2023-03-12T11:31:58.516Z,14.55
2023-03-12T11:33:02.127Z,13.27
2023-03-12T11:34:15.881Z,14.30
2023-03-12T11:35:27.197Z,12.15
2023-03-12T11:36:44.547Z,12.35
2023-03-12T11:38:00.172Z,12.48
2023-03-12T11:39:22.778Z,12.48
2023-03-12T11:40:49.632Z,11.88
2023-03-12T11:42:32.555Z,9.70
2023-03-12T11:44:15.820Z,11.23
2023-03-12T11:45:36.766Z,15.00
2023-03-12T11:47:00.408Z,9.52
2023-03-12T11:48:32.707Z,12.32
2023-03-12T11:49:51.209Z,12.10
2023-03-12T11:51:13.852Z,12.95
2023-03-12T11:52:31.393Z,13.57
2023-03-12T11:53:42.243Z,14.27
2023-03-12T11:55:32.228Z,11.75
2023-03-12T11:56:58.935Z,13.88
2023-03-12T11:58:14.467Z,15.57
2023-03-12T11:59:50.642Z,10.52
2023-03-12T12:00:53.034Z,14.10
2023-03-12T12:02:00.848Z,15.18
2023-03-12T12:03:18.414Z,12.77
2023-03-12T12:04:52.568Z,11.50
2023-03-12T12:06:13.376Z,14.23
2023-03-12T12:07:41.005Z,12.68
2023-03-12T12:09:04.676Z,11.65
2023-03-12T12:10:30.653Z,12.20
2023-03-12T12:11:38.767Z,13.38
2023-03-12T12:12:50.016Z,10.70
2023-03-12T12:14:13.400Z,11.95
2023-03-12T12:15:31.407Z,11.38
2023-03-12T12:16:47.495Z,9.65
2023-03-12T12:17:59.432Z,11.82
2023-03-12T12:19:30.151Z,11.07
2023-03-12T12:20:51.582Z,11.65
2023-03-12T12:22:08.487Z,9.68
2023-03-12T12:23:28.290Z,8.98
2023-03-12T12:25:11.285Z,9.95
2023-03-12T12:26:21.610Z,12.52
2023-03-12T12:27:30.190Z,11.43
2023-03-12T12:28:39.779Z,10.32
2023-03-12T12:30:10.238Z,11.43
2023-03-12T12:31:27.156Z,8.98
2023-03-12T12:32:42.952Z,9.05
2023-03-12T12:33:50.678Z,7.43
2023-03-12T12:35:08.231Z,13.07
2023-03-12T12:36:10.956Z,9.45
2023-03-12T12:37:39.230Z,6.80
2023-03-12T12:38:43.769Z,8.68
2023-03-12T12:39:52.049Z,9.85
2023-03-12T12:41:01.351Z,7.55
2023-03-12T12:42:07.828Z,8.10
2023-03-12T12:43:36.934Z,8.60
2023-03-12T12:44:46.623Z,11.57
2023-03-12T12:45:52.571Z,9.43
2023-03-12T12:47:05.350Z,10.18
2023-03-12T12:48:17.516Z,9.80
2023-03-12T12:49:30.324Z,7.68
2023-03-12T12:50:38.292Z,8.93
2023-03-12T12:51:46.177Z,10.27
2023-03-12T12:53:20.460Z,9.68
2023-03-12T12:54:22.665Z,10.32
2023-03-12T12:55:47.947Z,7.13
2023-03-12T12:57:00.745Z,8.68
2023-03-12T12:58:15.773Z,8.88
2023-03-12T12:59:52.070Z,9.60
2023-03-12T13:00:55.931Z,6.88
2023-03-12T13:02:01.320Z,7.88
2023-03-12T13:03:04.261Z,7.13
2023-03-12T13:04:13.448Z,8.48
2023-03-12T13:05:22.762Z,7.85
2023-03-12T13:06:29.956Z,7.70
2023-03-12T13:07:34.256Z,9.18
2023-03-12T13:08:39.329Z,10.00
2023-03-12T13:09:46.184Z,11.18
2023-03-12T13:10:58.152Z,12.23
2023-03-12T13:12:47.655Z,10.35
2023-03-12T13:14:11.342Z,10.00
2023-03-12T13:15:28.708Z,13.50
2023-03-12T13:16:38.616Z,8.13
2023-03-12T13:18:03.970Z,11.25
2023-03-12T13:19:27.573Z,13.27
2023-03-12T13:21:07.024Z,11.45
2023-03-12T13:22:12.766Z,13.35
2023-03-12T13:23:34.045Z,10.77
2023-03-12T13:25:07.833Z,12.50
2023-03-12T13:26:47.496Z,14.88
2023-03-12T13:27:58.439Z,15.60
2023-03-12T13:29:32.908Z,9.75
2023-03-12T13:30:35.128Z,12.30
2023-03-12T13:31:38.628Z,13.73
2023-03-12T13:32:49.897Z,10.85
2023-03-12T13:34:00.570Z,11.02
2023-03-12T13:35:14.796Z,13.98
2023-03-12T13:36:17.209Z,13.32
2023-03-12T13:37:29.335Z,9.60
2023-03-12T13:38:37.277Z,13.70
2023-03-12T13:39:44.856Z,14.02
2023-03-12T13:41:00.880Z,12.55
2023-03-12T13:42:24.983Z,11.23
2023-03-12T13:43:38.997Z,14.80
2023-03-12T13:44:43.562Z,14.55
2023-03-12T13:46:06.735Z,13.00
2023-03-12T13:47:11.931Z,18.83
2023-03-12T13:48:18.118Z,14.35
2023-03-12T13:49:21.188Z,13.93
2023-03-12T13:50:25.052Z,14.60
2023-03-12T13:51:28.197Z,11.95
2023-03-12T13:52:32.098Z,14.35
2023-03-12T13:53:39.253Z,11.85
2023-03-12T13:55:00.160Z,13.38
2023-03-12T13:56:16.744Z,12.35
2023-03-12T13:57:40.505Z,17.02
2023-03-12T13:58:57.254Z,15.75
2023-03-12T14:00:00.134Z,10.32
2023-03-12T14:01:06.791Z,13.57
2023-03-12T14:02:21.164Z,16.90
2023-03-12T14:03:41.681Z,14.63
2023-03-12T14:04:44.363Z,16.95
2023-03-12T14:06:07.405Z,16.77
2023-03-12T14:08:24.769Z,19.10
2023-03-12T14:09:56.859Z,14.05
2023-03-12T14:11:37.602Z,14.68
2023-03-12T14:12:51.544Z,15.80
2023-03-12T14:14:12.889Z,14.23
2023-03-12T14:15:40.048Z,13.93
2023-03-12T14:16:46.185Z,11.75
2023-03-12T14:17:57.022Z,10.60
2023-03-12T14:19:05.051Z,15.43
2023-03-12T14:20:13.885Z,16.98
2023-03-12T14:21:21.856Z,14.25
2023-03-12T14:22:25.305Z,17.08
2023-03-12T14:23:39.042Z,13.90
2023-03-12T14:24:50.280Z,14.25
2023-03-12T14:25:57.960Z,15.00
2023-03-12T14:27:03.965Z,13.88
2023-03-12T14:28:24.322Z,16.70
2023-03-12T14:29:38.919Z,20.45
2023-03-12T14:30:55.639Z,13.88
2023-03-12T14:32:03.417Z,13.98
2023-03-12T14:33:06.738Z,18.35
2023-03-12T14:34:18.680Z,14.85
2023-03-12T14:35:28.374Z,15.13
2023-03-12T14:36:46.695Z,15.52
2023-03-12T14:38:06.777Z,12.75
2023-03-12T14:39:22.497Z,16.55
2023-03-12T14:40:25.572Z,16.00
2023-03-12T14:41:54.176Z,18.10
2023-03-12T14:42:59.848Z,13.43
2023-03-12T14:44:23.855Z,14.77
2023-03-12T14:45:28.070Z,14.30
2023-03-12T14:46:30.795Z,12.68
2023-03-12T14:47:44.131Z,14.70
2023-03-12T14:48:51.823Z,13.20
2023-03-12T14:49:57.779Z,14.52
2023-03-12T14:51:01.929Z,15.75
2023-03-12T14:52:04.733Z,17.73
2023-03-12T14:53:34.220Z,12.65
2023-03-12T14:54:39.101Z,16.00
2023-03-12T14:55:41.552Z,16.75
2023-03-12T14:56:44.675Z,20.13
2023-03-12T14:57:49.024Z,15.10
2023-03-12T14:58:52.786Z,17.05
2023-03-12T14:59:59.999Z,13.30
2023-03-12T15:01:09.580Z,15.05
2023-03-12T15:02:14.991Z,15.65
2023-03-12T15:03:17.815Z,16.92
2023-03-12T15:04:23.820Z,16.30
2023-03-12T15:05:26.861Z,16.67
2023-03-12T15:06:32.784Z,17.20
2023-03-12T15:07:40.112Z,16.70
2023-03-12T15:08:44.429Z,12.65
2023-03-12T15:09:52.621Z,13.35
2023-03-12T15:10:58.438Z,19.45
2023-03-12T15:12:07.258Z,20.10
2023-03-12T15:13:12.755Z,21.48
2023-03-12T15:14:16.674Z,16.65